Time;durP1;ratioP1;P1;durP2;ratioP2;P2;SDS_P1;SDS_P2;PMS_P1;PMS_P2;Temp;Humidity;BMP_temperature;BMP_pressure;BME280_temperature;BME280_humidity;BME280_pressure;Samples;Min_cycle;Max_cycle;Signal;HPM_P1;HPM_P2
2022/04/06 00:01:42;;;;;;;34.20;11.85;;;10.10;94.60;;;;;;5084256;28;25149;-76
2022/04/06 00:04:08;;;;;;;36.00;10.50;;;10.00;94.60;;;;;;5090582;28;25073;-78
2022/04/06 00:06:34;;;;;;;26.45;10.38;;;10.00;94.90;;;;;;5069524;28;25094;-77
2022/04/06 00:09:00;;;;;;;24.70;10.73;;;10.00;94.70;;;;;;5080800;28;25072;-76
2022/04/06 00:11:26;;;;;;;41.63;10.95;;;10.00;94.70;;;;;;5074155;28;25067;-78
2022/04/06 00:13:52;;;;;;;35.03;10.18;;;10.00;94.60;;;;;;5073929;28;25071;-77
2022/04/06 00:16:17;;;;;;;37.38;10.10;;;10.00;94.50;;;;;;5052192;28;25072;-77
2022/04/06 00:18:43;;;;;;;39.15;9.88;;;10.00;94.60;;;;;;5071218;28;25071;-78
2022/04/06 00:21:09;;;;;;;33.30;9.52;;;10.00;94.50;;;;;;5069818;28;25099;-77
2022/04/06 00:23:34;;;;;;;31.27;9.50;;;10.00;94.50;;;;;;5076342;28;25082;-76
2022/04/06 00:26:00;;;;;;;38.70;10.63;;;9.90;94.60;;;;;;5057763;28;25072;-76
2022/04/06 00:28:26;;;;;;;29.42;10.88;;;10.00;94.60;;;;;;5076586;28;25178;-78
2022/04/06 00:30:52;;;;;;;31.52;9.48;;;10.00;94.70;;;;;;5061271;28;25090;-78
2022/04/06 00:33:17;;;;;;;27.90;8.90;;;10.00;94.60;;;;;;5081168;28;25085;-78
2022/04/06 00:35:43;;;;;;;32.80;9.20;;;10.00;94.50;;;;;;5084567;28;25056;-80
2022/04/06 00:38:09;;;;;;;24.48;8.68;;;10.00;94.10;;;;;;5084349;28;24802;-76
2022/04/06 00:40:36;;;;;;;26.83;9.30;;;9.90;94.10;;;;;;5087066;28;25158;-79
2022/04/06 00:43:12;;;;;;;33.88;9.77;;;10.00;94.30;;;;;;5105205;28;25085;-76
2022/04/06 00:45:39;;;;;;;35.33;9.13;;;9.90;94.00;;;;;;5084927;28;25058;-75
2022/04/06 00:48:06;;;;;;;21.67;8.82;;;9.90;93.80;;;;;;5111590;28;25047;-75
2022/04/06 00:50:33;;;;;;;23.27;8.05;;;10.00;93.80;;;;;;5096892;28;25058;-76
2022/04/06 00:52:59;;;;;;;26.95;8.85;;;10.00;93.60;;;;;;5083694;28;25065;-75
2022/04/06 00:55:32;;;;;;;33.20;8.57;;;9.90;93.40;;;;;;5097655;28;25068;-76
2022/04/06 00:57:58;;;;;;;28.63;7.80;;;9.90;93.40;;;;;;5104983;28;25068;-78
2022/04/06 01:00:24;;;;;;;32.35;8.48;;;9.90;93.40;;;;;;5090609;28;25073;-74
2022/04/06 01:02:50;;;;;;;31.35;8.50;;;9.90;93.20;;;;;;5085049;28;25080;-75
2022/04/06 01:05:16;;;;;;;30.05;9.40;;;9.90;93.10;;;;;;5067147;28;25051;-75
2022/04/06 01:07:50;;;;;;;29.25;8.20;;;9.90;93.00;;;;;;5067275;28;25136;-75
2022/04/06 01:10:16;;;;;;;26.20;7.53;;;9.90;93.00;;;;;;5085970;28;25082;-78
2022/04/06 01:12:46;;;;;;;23.52;7.47;;;9.90;92.80;;;;;;5082738;28;25049;-76
2022/04/06 01:15:12;;;;;;;24.52;7.25;;;9.80;92.60;;;;;;5104648;28;25066;-79
2022/04/06 01:17:37;;;;;;;25.73;7.30;;;9.90;92.10;;;;;;5088842;28;25056;-79
2022/04/06 01:20:07;;;;;;;28.75;7.65;;;9.90;92.10;;;;;;5098580;28;25082;-79
2022/04/06 01:22:34;;;;;;;27.90;6.95;;;9.90;91.90;;;;;;5079726;28;25115;-79
2022/04/06 01:25:00;;;;;;;27.52;6.82;;;9.80;91.80;;;;;;5084937;28;25061;-79
2022/04/06 01:27:27;;;;;;;26.55;6.43;;;9.80;91.60;;;;;;5085865;28;25056;-80
2022/04/06 01:29:54;;;;;;;21.10;6.43;;;9.90;91.80;;;;;;5097364;28;25059;-79
2022/04/06 01:32:22;;;;;;;25.92;6.20;;;9.90;90.90;;;;;;5082202;28;25059;-79
2022/04/06 01:34:49;;;;;;;25.17;5.93;;;9.80;90.60;;;;;;5064595;28;25056;-76
2022/04/06 01:37:16;;;;;;;22.52;6.85;;;9.80;90.00;;;;;;5055906;28;25143;-77
2022/04/06 01:39:45;;;;;;;19.13;5.45;;;9.80;89.70;;;;;;5053423;28;25064;-77
2022/04/06 01:42:13;;;;;;;18.50;5.95;;;9.80;89.00;;;;;;5071210;28;25071;-77
2022/04/06 01:44:39;;;;;;;18.27;5.40;;;9.80;88.10;;;;;;5070149;28;25074;-76
2022/04/06 01:47:07;;;;;;;26.80;5.80;;;9.80;87.60;;;;;;5070801;28;25092;-80
2022/04/06 01:52:19;;;;;;;17.75;4.65;;;9.80;86.10;;;;;;5070388;28;25119;-76
2022/04/06 01:54:52;;;;;;;17.00;4.50;;;9.80;85.60;;;;;;5057276;28;25083;-78
2022/04/06 01:57:18;;;;;;;20.60;4.90;;;9.70;85.20;;;;;;5032597;28;25065;-76
2022/04/06 01:59:44;;;;;;;18.65;4.60;;;9.70;84.70;;;;;;5056569;28;25072;-78
2022/04/06 02:02:13;;;;;;;15.00;4.82;;;9.70;83.20;;;;;;5073250;28;25089;-76
2022/04/06 02:04:39;;;;;;;15.45;4.68;;;9.70;82.70;;;;;;5069753;28;25143;-77
2022/04/06 02:07:06;;;;;;;16.33;4.45;;;9.70;82.50;;;;;;5071026;28;25095;-76
2022/04/06 02:09:39;;;;;;;17.23;4.63;;;9.70;81.70;;;;;;5054764;28;25095;-78
2022/04/06 02:12:06;;;;;;;16.85;4.75;;;9.70;80.70;;;;;;5071655;28;25050;-80
2022/04/06 02:14:31;;;;;;;22.33;4.63;;;9.70;80.20;;;;;;5070617;28;25133;-75
2022/04/06 02:16:57;;;;;;;17.77;4.78;;;9.70;79.30;;;;;;5070401;28;25074;-75
2022/04/06 02:19:23;;;;;;;15.77;5.20;;;9.70;79.30;;;;;;5073604;28;25052;-78
2022/04/06 02:21:48;;;;;;;18.15;4.43;;;9.70;79.00;;;;;;5072511;28;25090;-76
2022/04/06 02:24:14;;;;;;;16.55;4.53;;;9.70;78.50;;;;;;5070863;28;25097;-79
2022/04/06 02:26:39;;;;;;;18.42;3.85;;;9.70;77.70;;;;;;5051598;28;25059;-77
2022/04/06 02:29:05;;;;;;;16.42;4.30;;;9.70;77.40;;;;;;5062952;28;25092;-77
2022/04/06 02:31:31;;;;;;;14.30;3.95;;;9.70;76.80;;;;;;5071851;28;25137;-75
2022/04/06 02:33:57;;;;;;;20.40;4.07;;;9.60;76.10;;;;;;5063973;28;25139;-76
2022/04/06 02:36:22;;;;;;;14.90;3.88;;;9.70;76.20;;;;;;5058979;28;25057;-79
2022/04/06 02:38:48;;;;;;;9.52;2.72;;;9.60;75.50;;;;;;5069024;28;25049;-78
2022/04/06 02:41:14;;;;;;;10.40;2.65;;;9.60;74.30;;;;;;5051523;28;25167;-80
2022/04/06 02:43:40;;;;;;;10.85;3.20;;;9.60;72.90;;;;;;5069392;28;25054;-80
2022/04/06 02:46:06;;;;;;;12.10;2.58;;;9.60;72.20;;;;;;5041239;28;25113;-76
2022/04/06 02:48:32;;;;;;;10.15;3.25;;;9.60;71.70;;;;;;5036682;28;25064;-77
2022/04/06 02:50:57;;;;;;;10.48;2.58;;;9.60;71.30;;;;;;5068557;28;25122;-79
2022/04/06 02:53:23;;;;;;;11.88;2.78;;;9.60;70.40;;;;;;5050947;28;25061;-78
2022/04/06 02:55:49;;;;;;;12.82;2.65;;;9.60;70.40;;;;;;5070142;28;25190;-77
2022/04/06 02:58:15;;;;;;;15.75;3.85;;;9.60;70.40;;;;;;5069970;28;25162;-76
2022/04/06 03:00:41;;;;;;;14.00;2.63;;;9.60;70.50;;;;;;5069529;28;25075;-76
2022/04/06 03:03:06;;;;;;;8.65;2.33;;;9.60;71.10;;;;;;5069971;28;25143;-77
2022/04/06 03:05:32;;;;;;;16.20;3.20;;;9.50;70.60;;;;;;5071051;28;25058;-75
2022/04/06 03:07:58;;;;;;;8.18;2.10;;;9.60;71.00;;;;;;5072772;28;25054;-81
2022/04/06 03:10:23;;;;;;;11.07;2.72;;;9.60;70.40;;;;;;5082356;28;25054;-76
2022/04/06 03:12:49;;;;;;;9.30;2.08;;;9.60;70.70;;;;;;5084324;28;25118;-77
2022/04/06 03:15:15;;;;;;;15.25;3.65;;;9.50;70.60;;;;;;5087514;28;25055;-77
2022/04/06 03:17:41;;;;;;;12.38;3.03;;;9.60;70.10;;;;;;5090268;28;25061;-77
2022/04/06 03:20:08;;;;;;;9.45;2.47;;;9.60;70.60;;;;;;5091031;28;25058;-79
2022/04/06 03:22:34;;;;;;;17.20;2.53;;;9.60;70.60;;;;;;5053067;28;25070;-75
2022/04/06 03:25:00;;;;;;;10.38;2.90;;;9.60;71.00;;;;;;5092552;28;25137;-76
2022/04/06 03:27:25;;;;;;;15.63;2.47;;;9.60;71.40;;;;;;5066718;28;25067;-79
2022/04/06 03:29:51;;;;;;;6.03;2.00;;;9.50;71.70;;;;;;5073062;28;25148;-78
2022/04/06 03:32:16;;;;;;;19.15;3.35;;;9.60;72.10;;;;;;5050667;28;25121;-77
2022/04/06 03:34:42;;;;;;;12.20;3.13;;;9.50;71.60;;;;;;5049588;28;25062;-79
2022/04/06 03:37:07;;;;;;;16.95;2.90;;;9.50;71.20;;;;;;5060903;28;25164;-78
2022/04/06 03:39:33;;;;;;;12.52;2.53;;;9.50;71.30;;;;;;5064171;28;25080;-78
2022/04/06 03:41:59;;;;;;;13.05;2.80;;;9.50;71.50;;;;;;5061462;28;25057;-81
2022/04/06 03:44:25;;;;;;;15.98;3.72;;;9.50;72.30;;;;;;5052764;28;25139;-80
2022/04/06 03:46:50;;;;;;;11.55;3.55;;;9.40;72.00;;;;;;5048418;28;25075;-76
2022/04/06 03:49:16;;;;;;;14.75;4.60;;;9.40;72.70;;;;;;5032219;28;25050;-73
2022/04/06 03:51:42;;;;;;;7.65;2.47;;;9.40;72.70;;;;;;5066993;28;25071;-77
2022/04/06 03:54:08;;;;;;;15.57;3.63;;;9.50;73.10;;;;;;5078691;28;25052;-78
2022/04/06 03:56:34;;;;;;;13.68;3.22;;;9.50;73.40;;;;;;5075172;28;25124;-78
2022/04/06 03:58:59;;;;;;;18.77;3.33;;;9.40;73.60;;;;;;5073350;28;25153;-78
2022/04/06 04:01:25;;;;;;;13.00;3.35;;;9.40;74.00;;;;;;5045005;28;25073;-75
2022/04/06 04:03:51;;;;;;;9.95;3.45;;;9.40;74.40;;;;;;5054317;28;25072;-74
2022/04/06 04:06:16;;;;;;;19.58;3.80;;;9.40;74.80;;;;;;5064758;28;25061;-76
2022/04/06 04:08:42;;;;;;;14.88;3.15;;;9.40;74.10;;;;;;5035527;28;25091;-76
2022/04/06 04:11:08;;;;;;;21.42;5.85;;;9.40;74.70;;;;;;5042052;28;25089;-76
2022/04/06 04:13:34;;;;;;;23.77;4.00;;;9.40;75.00;;;;;;5066905;28;25069;-78
2022/04/06 04:16:00;;;;;;;15.20;3.55;;;9.40;75.50;;;;;;5072349;28;25056;-76
2022/04/06 04:18:25;;;;;;;18.48;3.50;;;9.40;75.20;;;;;;5095360;28;25098;-79
2022/04/06 04:21:31;;;;;;;19.88;4.07;;;9.50;75.50;;;;;;5092071;28;25057;-80
2022/04/06 04:23:37;;;;;;;18.27;3.92;;;9.50;75.20;;;;;;5074185;28;25067;-76
2022/04/06 04:26:02;;;;;;;19.02;3.42;;;9.50;75.70;;;;;;5072218;28;25088;-77
2022/04/06 04:28:28;;;;;;;17.33;3.40;;;9.50;76.50;;;;;;5072696;28;25075;-78
2022/04/06 04:30:53;;;;;;;17.52;3.90;;;9.50;77.10;;;;;;5069502;28;25068;-78
2022/04/06 04:33:19;;;;;;;9.63;3.50;;;9.40;77.30;;;;;;5064488;28;25141;-79
2022/04/06 04:35:44;;;;;;;16.67;3.75;;;9.40;77.70;;;;;;5059353;28;25172;-77
2022/04/06 04:38:11;;;;;;;24.00;4.40;;;9.40;78.60;;;;;;5062244;28;25157;-78
2022/04/06 04:40:37;;;;;;;20.30;4.15;;;9.50;79.00;;;;;;5053700;28;25160;-76
2022/04/06 04:43:03;;;;;;;21.67;5.22;;;9.40;79.70;;;;;;5067719;28;25098;-78
2022/04/06 04:45:28;;;;;;;19.20;4.80;;;9.40;80.40;;;;;;5065726;28;25077;-78
2022/04/06 04:47:54;;;;;;;17.08;4.80;;;9.40;80.70;;;;;;5071981;28;25065;-79
2022/04/06 04:50:20;;;;;;;22.92;5.07;;;9.40;81.60;;;;;;5070668;28;25059;-77
2022/04/06 04:52:45;;;;;;;18.35;5.75;;;9.40;82.20;;;;;;5065490;28;25134;-78
2022/04/06 04:55:11;;;;;;;21.50;5.95;;;9.50;82.80;;;;;;5066796;28;25065;-76
2022/04/06 04:57:36;;;;;;;28.40;6.18;;;9.40;83.50;;;;;;5067048;28;25109;-79
2022/04/06 05:00:06;;;;;;;34.25;6.75;;;9.40;83.90;;;;;;5059862;28;25056;-77
2022/04/06 05:02:31;;;;;;;25.23;6.25;;;9.40;84.40;;;;;;5066734;28;25061;-77
2022/04/06 05:04:57;;;;;;;22.48;6.43;;;9.40;85.30;;;;;;5070323;28;25058;-78
2022/04/06 05:07:22;;;;;;;30.35;7.05;;;9.40;85.50;;;;;;5051416;28;25108;-79
2022/04/06 05:09:49;;;;;;;23.27;7.47;;;9.40;86.60;;;;;;5068859;28;25074;-78
2022/04/06 05:12:15;;;;;;;19.48;6.32;;;9.40;86.50;;;;;;5072841;28;25067;-79
2022/04/06 05:14:41;;;;;;;25.92;7.18;;;9.40;86.00;;;;;;5072247;28;25067;-78
2022/04/06 05:17:07;;;;;;;18.98;6.30;;;9.40;86.50;;;;;;5068697;28;25156;-75
2022/04/06 05:19:33;;;;;;;20.40;6.07;;;9.40;86.60;;;;;;5071571;28;25142;-76
2022/04/06 05:21:59;;;;;;;20.67;5.85;;;9.40;86.10;;;;;;5057196;28;25071;-78
2022/04/06 05:24:25;;;;;;;29.80;6.55;;;9.40;85.70;;;;;;5056158;28;25070;-79
2022/04/06 05:26:51;;;;;;;35.72;6.03;;;9.40;85.60;;;;;;5063407;28;25064;-79
2022/04/06 05:29:17;;;;;;;21.83;5.80;;;9.40;85.10;;;;;;5055759;28;25101;-77
2022/04/06 05:31:43;;;;;;;21.30;5.40;;;9.40;85.00;;;;;;5072906;28;25102;-76
2022/04/06 05:34:09;;;;;;;15.75;4.97;;;9.40;84.90;;;;;;5053737;28;25055;-75
2022/04/06 05:36:34;;;;;;;19.83;6.15;;;9.40;84.00;;;;;;5046467;28;25082;-78
2022/04/06 05:39:00;;;;;;;22.48;4.57;;;9.40;83.60;;;;;;5062113;28;25154;-78
2022/04/06 05:41:26;;;;;;;22.00;5.03;;;9.50;83.10;;;;;;5072614;28;25065;-77
2022/04/06 05:43:51;;;;;;;20.65;4.93;;;9.50;82.60;;;;;;5073036;28;25050;-76
2022/04/06 05:46:17;;;;;;;11.73;3.47;;;9.40;82.00;;;;;;5074801;28;25061;-79
2022/04/06 05:48:42;;;;;;;15.23;4.22;;;9.50;80.90;;;;;;5074570;28;26163;-76
2022/04/06 05:51:08;;;;;;;17.23;3.63;;;9.50;80.40;;;;;;5073205;28;25049;-76
2022/04/06 05:53:34;;;;;;;13.75;3.33;;;9.50;79.70;;;;;;5056267;28;25103;-78
2022/04/06 05:55:59;;;;;;;13.80;3.55;;;9.50;78.80;;;;;;5056037;28;25063;-77
2022/04/06 05:58:25;;;;;;;12.25;3.00;;;9.50;77.50;;;;;;5056252;28;25079;-78
2022/04/06 06:00:50;;;;;;;10.68;2.47;;;9.50;76.90;;;;;;5078426;28;25087;-78
2022/04/06 06:03:16;;;;;;;14.20;2.65;;;9.50;75.90;;;;;;5064287;28;25115;-76
2022/04/06 06:05:43;;;;;;;15.93;3.13;;;9.50;74.80;;;;;;5061492;28;25081;-77
2022/04/06 06:08:09;;;;;;;12.00;2.65;;;9.50;74.90;;;;;;5077320;28;25064;-78
2022/04/06 06:10:34;;;;;;;15.57;4.20;;;9.50;74.30;;;;;;5083558;28;25062;-78
2022/04/06 06:13:00;;;;;;;14.85;2.75;;;9.50;73.70;;;;;;5074419;28;25054;-77
2022/04/06 06:15:25;;;;;;;8.73;2.08;;;9.50;73.00;;;;;;5074803;28;25066;-79
2022/04/06 06:17:52;;;;;;;13.98;3.22;;;9.50;72.50;;;;;;5074902;28;25069;-77
2022/04/06 06:20:19;;;;;;;14.93;2.40;;;9.50;72.10;;;;;;5073491;28;25068;-78
2022/04/06 06:22:44;;;;;;;14.13;2.90;;;9.50;71.20;;;;;;5055738;28;25063;-77
2022/04/06 06:25:10;;;;;;;10.25;1.70;;;9.60;71.10;;;;;;5057627;28;25050;-76
2022/04/06 06:27:40;;;;;;;12.05;2.97;;;9.60;69.80;;;;;;5059661;28;25071;-78
2022/04/06 06:30:09;;;;;;;9.63;2.35;;;9.60;69.50;;;;;;5072700;28;25074;-76
2022/04/06 06:32:35;;;;;;;11.10;2.30;;;9.60;68.70;;;;;;5046333;28;25079;-78
2022/04/06 06:35:01;;;;;;;10.95;1.90;;;9.60;69.10;;;;;;5053394;28;25080;-78
2022/04/06 06:37:26;;;;;;;11.30;2.17;;;9.70;68.80;;;;;;5036079;28;25100;-75
2022/04/06 06:39:54;;;;;;;12.23;2.47;;;9.70;68.60;;;;;;5063463;28;25065;-79
2022/04/06 06:42:20;;;;;;;6.05;1.75;;;9.70;69.00;;;;;;5056700;28;25068;-77
2022/04/06 06:44:46;;;;;;;10.07;2.17;;;9.70;69.10;;;;;;5072677;28;25057;-76
2022/04/06 06:47:12;;;;;;;12.65;2.60;;;9.80;68.80;;;;;;5072131;28;25064;-76
2022/04/06 06:49:41;;;;;;;10.32;2.40;;;9.80;68.60;;;;;;5072295;28;25115;-76
2022/04/06 06:52:07;;;;;;;11.77;2.67;;;9.80;66.60;;;;;;5072746;28;25120;-75
2022/04/06 06:54:33;;;;;;;8.38;2.00;;;9.90;66.80;;;;;;5072836;28;25055;-75
2022/04/06 06:56:58;;;;;;;17.33;2.40;;;9.90;67.00;;;;;;5072170;28;25067;-76
2022/04/06 06:59:24;;;;;;;10.80;1.90;;;9.90;67.50;;;;;;5072624;28;25065;-78
2022/04/06 07:01:49;;;;;;;15.48;2.70;;;9.90;66.60;;;;;;5054084;28;25071;-74
2022/04/06 07:04:15;;;;;;;11.70;2.50;;;9.90;67.30;;;;;;5072908;28;25469;-76
2022/04/06 07:06:40;;;;;;;21.92;3.88;;;9.90;67.20;;;;;;5079924;28;25081;-74
2022/04/06 07:09:06;;;;;;;18.35;3.60;;;10.00;67.70;;;;;;5084860;28;25087;-77
2022/04/06 07:11:32;;;;;;;10.68;2.10;;;9.90;68.00;;;;;;5066733;28;25107;-78
2022/04/06 07:13:57;;;;;;;16.65;2.80;;;9.90;68.20;;;;;;5069264;28;25076;-77
2022/04/06 07:16:23;;;;;;;14.65;2.78;;;9.90;68.60;;;;;;5085481;28;25082;-76
2022/04/06 07:18:49;;;;;;;16.92;2.65;;;10.00;68.90;;;;;;5084596;28;25095;-75
2022/04/06 07:21:15;;;;;;;16.90;2.38;;;10.00;69.10;;;;;;5082436;28;25083;-76
2022/04/06 07:23:41;;;;;;;12.23;2.58;;;10.10;69.40;;;;;;5084464;28;25162;-75
2022/04/06 07:26:06;;;;;;;10.20;3.25;;;10.20;69.80;;;;;;5066091;28;25080;-78
2022/04/06 07:28:32;;;;;;;15.85;2.72;;;10.20;69.60;;;;;;5080172;28;25068;-76
2022/04/06 07:30:59;;;;;;;10.55;2.35;;;10.20;71.70;;;;;;5095825;28;25061;-77
2022/04/06 07:33:25;;;;;;;8.48;2.08;;;10.10;72.20;;;;;;5083464;28;25072;-76
2022/04/06 07:35:50;;;;;;;11.48;2.60;;;10.00;72.80;;;;;;5075073;28;25178;-77
2022/04/06 07:38:18;;;;;;;15.93;3.10;;;10.10;73.70;;;;;;5060171;28;25062;-78
2022/04/06 07:40:43;;;;;;;14.73;3.33;;;10.10;73.50;;;;;;5076083;28;25112;-77
2022/04/06 07:43:10;;;;;;;12.10;2.60;;;10.10;74.20;;;;;;5058732;28;25085;-80
2022/04/06 07:45:36;;;;;;;18.45;3.25;;;10.00;73.70;;;;;;5075612;28;25061;-76
2022/04/06 07:48:04;;;;;;;13.05;3.78;;;10.00;75.00;;;;;;5058047;28;25099;-79
2022/04/06 07:50:29;;;;;;;17.33;3.58;;;10.00;76.20;;;;;;5075792;28;25107;-77
2022/04/06 07:52:55;;;;;;;14.02;3.10;;;10.00;78.90;;;;;;5075833;28;25102;-78
2022/04/06 07:55:21;;;;;;;56.75;6.45;;;10.00;79.90;;;;;;5076130;28;25099;-76
2022/04/06 07:57:46;;;;;;;13.40;3.35;;;10.00;81.30;;;;;;5059470;28;25152;-75
2022/04/06 08:00:16;;;;;;;15.20;3.28;;;9.90;83.10;;;;;;5076522;28;25098;-74
2022/04/06 08:02:46;;;;;;;19.40;4.00;;;9.80;85.50;;;;;;5076647;28;25074;-77
2022/04/06 08:05:12;;;;;;;17.15;4.18;;;9.80;88.10;;;;;;5075025;28;25081;-76
2022/04/06 08:07:43;;;;;;;21.05;4.43;;;9.70;90.00;;;;;;5056716;28;25128;-78
2022/04/06 08:10:11;;;;;;;25.55;6.18;;;9.70;90.90;;;;;;5074648;28;25145;-80
2022/04/06 08:12:37;;;;;;;28.00;4.07;;;9.70;91.70;;;;;;5056776;28;25177;-74
2022/04/06 08:15:03;;;;;;;15.23;4.22;;;9.70;92.20;;;;;;5074506;28;25084;-75
2022/04/06 08:17:37;;;;;;;18.00;4.95;;;9.70;92.80;;;;;;5073763;28;25055;-76
2022/04/06 08:20:04;;;;;;;21.45;5.03;;;9.70;93.30;;;;;;5056260;28;25110;-76
2022/04/06 08:22:34;;;;;;;24.60;4.78;;;9.60;93.20;;;;;;5055771;28;25060;-78
2022/04/06 08:25:07;;;;;;;16.08;4.72;;;9.60;93.60;;;;;;5055581;28;25167;-77
2022/04/06 08:27:39;;;;;;;17.10;4.45;;;9.60;94.00;;;;;;5080092;28;25102;-77
2022/04/06 08:30:07;;;;;;;13.85;4.30;;;9.60;93.60;;;;;;5094176;28;25139;-75
2022/04/06 08:32:33;;;;;;;21.38;4.93;;;9.50;93.20;;;;;;5086810;28;25064;-74
2022/04/06 08:35:00;;;;;;;20.25;5.95;;;9.50;93.80;;;;;;5074045;28;25085;-76
2022/04/06 08:37:39;;;;;;;27.95;5.78;;;9.50;93.90;;;;;;5058881;28;25072;-76
2022/04/06 08:40:10;;;;;;;20.20;5.97;;;9.50;94.40;;;;;;5073810;28;25137;-75
2022/04/06 08:42:42;;;;;;;18.83;5.40;;;9.50;95.50;;;;;;5054718;28;25075;-78
2022/04/06 08:45:20;;;;;;;23.50;6.05;;;9.50;96.20;;;;;;5073082;28;25071;-75
2022/04/06 08:47:48;;;;;;;21.25;5.72;;;9.50;96.90;;;;;;5073530;28;25105;-76
2022/04/06 08:50:17;;;;;;;19.27;5.70;;;9.50;97.60;;;;;;5073101;28;25069;-76
2022/04/06 08:52:44;;;;;;;18.80;6.40;;;9.50;98.30;;;;;;5072135;28;25096;-73
2022/04/06 08:55:11;;;;;;;21.48;5.47;;;9.50;99.10;;;;;;5053411;28;25063;-72
2022/04/06 08:57:36;;;;;;;23.00;6.43;;;9.50;99.90;;;;;;5072854;28;25081;-74
2022/04/06 09:00:10;;;;;;;21.60;6.28;;;9.50;99.90;;;;;;5077832;28;25101;-79
2022/04/06 09:02:36;;;;;;;17.85;5.97;;;9.40;99.90;;;;;;5074377;28;25098;-77
2022/04/06 09:05:03;;;;;;;21.08;6.50;;;9.40;99.90;;;;;;5073286;28;25154;-73
2022/04/06 09:07:31;;;;;;;20.05;6.07;;;9.50;99.90;;;;;;5067960;28;25058;-77
2022/04/06 09:09:57;;;;;;;19.23;5.80;;;9.50;99.90;;;;;;5057606;28;25071;-77
2022/04/06 09:12:24;;;;;;;28.25;7.45;;;9.40;99.90;;;;;;5081414;28;25053;-73
2022/04/06 09:15:10;;;;;;;17.30;5.85;;;9.40;99.90;;;;;;5080012;28;25063;-76
2022/04/06 09:17:49;;;;;;;19.15;7.22;;;9.40;99.90;;;;;;5091677;28;25081;-75
2022/04/06 09:20:19;;;;;;;25.23;7.32;;;9.40;99.90;;;;;;5075107;28;25137;-75
2022/04/06 09:22:45;;;;;;;23.33;6.30;;;9.40;99.90;;;;;;5089973;28;25060;-78
2022/04/06 09:25:14;;;;;;;24.45;6.38;;;9.40;99.90;;;;;;5073024;28;25047;-74
2022/04/06 09:27:41;;;;;;;19.90;7.03;;;9.30;99.90;;;;;;5073539;28;25080;-75
2022/04/06 09:30:09;;;;;;;29.75;7.32;;;9.40;99.90;;;;;;5093321;28;25081;-76
2022/04/06 09:32:35;;;;;;;20.60;6.47;;;9.30;99.90;;;;;;5084882;28;25083;-74
2022/04/06 09:35:21;;;;;;;22.60;7.15;;;9.30;99.90;;;;;;5072703;28;25071;-76
2022/04/06 09:37:47;;;;;;;18.67;6.28;;;9.40;99.90;;;;;;5054353;28;25064;-75
2022/04/06 09:40:13;;;;;;;26.02;6.43;;;9.40;99.90;;;;;;5062019;28;25054;-75
2022/04/06 09:42:51;;;;;;;19.73;5.72;;;9.40;99.90;;;;;;5093176;28;25066;-76
2022/04/06 09:48:12;;;;;;;29.08;7.82;;;9.40;99.90;;;;;;5094231;28;25066;-76
2022/04/06 09:50:38;;;;;;;23.25;6.70;;;9.50;99.90;;;;;;5095258;28;25063;-76
2022/04/06 09:53:06;;;;;;;19.90;5.93;;;9.50;99.90;;;;;;5095877;28;25063;-76
2022/04/06 09:55:33;;;;;;;19.52;6.20;;;9.50;99.90;;;;;;5097748;28;25065;-75
2022/04/06 09:58:03;;;;;;;24.92;6.50;;;9.60;99.90;;;;;;5075564;28;25094;-77
2022/04/06 10:00:30;;;;;;;24.48;7.50;;;9.60;99.90;;;;;;5075804;28;25059;-79
2022/04/06 10:03:10;;;;;;;19.83;7.00;;;9.60;99.90;;;;;;5092786;28;25104;-73
2022/04/06 10:05:38;;;;;;;18.50;6.53;;;9.60;99.90;;;;;;5093178;28;25058;-79
2022/04/06 10:08:07;;;;;;;19.10;6.35;;;9.60;99.90;;;;;;5093263;28;25150;-78
2022/04/06 10:10:35;;;;;;;15.38;7.65;;;9.70;99.90;;;;;;5093297;28;25173;-76
2022/04/06 10:13:07;;;;;;;24.05;7.00;;;9.70;99.90;;;;;;5075833;28;25063;-78
2022/04/06 10:15:34;;;;;;;;;;;9.70;99.90;;;;;;5092972;28;25055;-79
2022/04/06 10:18:01;;;;;;;22.58;5.40;;;9.80;99.90;;;;;;5093803;28;24062;-74
2022/04/06 10:20:27;;;;;;;20.42;6.88;;;9.80;99.90;;;;;;5076452;28;25073;-76
2022/04/06 10:23:22;;;;;;;24.00;6.82;;;9.80;99.90;;;;;;5097918;28;25075;-79
2022/04/06 10:25:50;;;;;;;22.48;7.05;;;9.80;99.90;;;;;;5075315;28;25067;-76
2022/04/06 10:28:20;;;;;;;22.17;6.72;;;9.90;99.90;;;;;;5093178;28;25125;-78
2022/04/06 10:31:17;;;;;;;16.55;6.40;;;9.90;99.90;;;;;;5075773;28;25099;-77
2022/04/06 10:33:45;;;;;;;19.30;7.13;;;10.00;99.90;;;;;;5075015;28;25099;-77
2022/04/06 10:36:19;;;;;;;22.13;7.95;;;10.00;99.90;;;;;;5073174;28;25091;-76
2022/04/06 10:39:04;;;;;;;21.92;5.82;;;10.10;99.90;;;;;;5072494;28;25051;-78
2022/04/06 10:41:30;;;;;;;23.92;6.32;;;10.20;99.90;;;;;;5054408;28;25055;-77
2022/04/06 10:43:56;;;;;;;17.98;6.05;;;10.20;99.90;;;;;;5055006;28;25057;-79
2022/04/06 10:46:51;;;;;;;18.65;5.90;;;10.20;99.90;;;;;;5072468;28;25089;-75
2022/04/06 10:49:16;;;;;;;19.27;6.20;;;10.30;99.90;;;;;;5062727;28;25068;-77
2022/04/06 10:51:50;;;;;;;17.52;5.82;;;10.40;99.90;;;;;;5072962;28;25077;-75
2022/04/06 10:54:15;;;;;;;16.77;5.85;;;10.50;99.90;;;;;;5072467;28;25089;-79
2022/04/06 10:56:50;;;;;;;15.32;4.97;;;10.80;99.90;;;;;;5072365;28;24965;-77
2022/04/06 10:59:17;;;;;;;17.50;6.00;;;11.20;99.90;;;;;;5073837;28;25070;-81
2022/04/06 11:01:46;;;;;;;48.63;9.77;;;11.30;99.90;;;;;;5055682;28;25127;-78
2022/04/06 11:04:22;;;;;;;15.52;5.97;;;11.20;99.90;;;;;;5075078;28;25069;-78
2022/04/06 11:06:49;;;;;;;14.38;4.35;;;11.40;99.90;;;;;;5055409;28;25067;-75
2022/04/06 11:12:20;;;;;;;12.23;4.65;;;11.50;96.20;;;;;;5073599;28;25052;-82
2022/04/06 11:15:09;;;;;;;19.50;5.53;;;11.70;96.60;;;;;;5082315;28;25064;-77
2022/04/06 11:17:43;;;;;;;19.70;4.82;;;11.80;95.10;;;;;;5093920;28;25067;-78
2022/04/06 11:20:20;;;;;;;13.15;4.78;;;11.80;94.10;;;;;;5095683;28;25051;-75
2022/04/06 11:22:56;;;;;;;15.73;4.50;;;11.80;93.50;;;;;;5095227;28;25066;-77
2022/04/06 11:25:30;;;;;;;29.90;5.50;;;11.90;93.30;;;;;;5094133;28;25071;-79
2022/04/06 11:28:06;;;;;;;34.42;6.88;;;11.90;92.80;;;;;;5097871;28;25095;-75
2022/04/06 11:30:34;;;;;;;15.57;3.92;;;12.00;92.70;;;;;;5085497;28;25072;-78
2022/04/06 11:33:02;;;;;;;17.98;4.43;;;11.90;91.00;;;;;;5080284;28;25141;-77
2022/04/06 11:35:29;;;;;;;16.80;4.78;;;11.70;90.10;;;;;;5095361;28;25087;-75
2022/04/06 11:37:55;;;;;;;14.30;4.97;;;11.60;90.60;;;;;;5079450;28;25049;-76
2022/04/06 11:40:22;;;;;;;11.55;4.03;;;11.50;90.30;;;;;;5090533;28;25073;-74
2022/04/06 11:42:52;;;;;;;19.92;4.20;;;11.30;90.60;;;;;;5092595;28;25055;-79
2022/04/06 11:45:19;;;;;;;7.32;4.75;;;11.30;91.20;;;;;;5075397;28;25110;-78
2022/04/06 11:47:52;;;;;;;12.20;4.10;;;11.20;90.60;;;;;;5093673;28;25049;-78
2022/04/06 11:50:17;;;;;;;10.30;4.05;;;11.20;90.80;;;;;;5090679;28;25080;-73
2022/04/06 11:52:43;;;;;;;14.93;4.68;;;11.10;90.90;;;;;;5073527;28;25086;-77
2022/04/06 11:55:09;;;;;;;19.70;4.80;;;11.10;90.40;;;;;;5071569;28;25072;-77
2022/04/06 11:57:37;;;;;;;10.10;4.03;;;11.00;90.40;;;;;;5070066;28;25076;-77
2022/04/06 12:00:08;;;;;;;12.38;4.00;;;11.10;90.70;;;;;;5070701;28;25085;-77
2022/04/06 12:02:47;;;;;;;20.17;4.55;;;11.10;90.80;;;;;;5070198;28;25077;-77
2022/04/06 12:05:13;;;;;;;27.25;6.43;;;11.00;91.70;;;;;;5070812;28;25090;-75
2022/04/06 12:07:38;;;;;;;20.70;4.32;;;11.10;92.80;;;;;;5069199;28;25107;-77
2022/04/06 12:10:04;;;;;;;11.57;4.28;;;11.00;93.70;;;;;;5068887;28;25137;-77
2022/04/06 12:12:30;;;;;;;8.10;3.25;;;10.90;94.50;;;;;;5069734;28;25080;-78
2022/04/06 12:14:56;;;;;;;16.63;3.60;;;10.90;95.00;;;;;;5080727;28;25059;-75
2022/04/06 12:17:22;;;;;;;10.38;2.97;;;10.90;94.70;;;;;;5089518;28;25051;-76
2022/04/06 12:19:48;;;;;;;8.48;2.72;;;11.00;94.40;;;;;;5092641;28;25077;-76
2022/04/06 12:22:14;;;;;;;11.40;3.05;;;11.00;93.80;;;;;;5093906;28;25063;-75
2022/04/06 12:24:41;;;;;;;11.57;3.50;;;11.00;93.00;;;;;;5092617;28;25071;-76
2022/04/06 12:27:07;;;;;;;20.65;4.65;;;11.00;93.00;;;;;;5074889;28;25079;-77
2022/04/06 12:29:35;;;;;;;38.67;8.57;;;11.00;91.80;;;;;;5076112;28;25093;-73
2022/04/06 12:32:02;;;;;;;24.05;5.43;;;10.90;91.00;;;;;;5091068;28;25243;-74
2022/04/06 12:34:39;;;;;;;113.20;16.00;;;10.90;90.30;;;;;;5073662;28;25112;-75
2022/04/06 12:39:54;;;;;;;31.33;6.60;;;11.10;90.30;;;;;;5080423;28;25082;-75
2022/04/06 12:42:21;;;;;;;26.20;6.68;;;11.00;90.30;;;;;;5095727;28;25079;-74
2022/04/06 12:44:58;;;;;;;8.60;3.75;;;11.10;90.20;;;;;;5078795;28;25107;-80
2022/04/06 12:47:25;;;;;;;14.93;4.85;;;11.00;88.80;;;;;;5080326;28;25046;-76
2022/04/06 12:49:51;;;;;;;22.63;4.78;;;11.10;89.20;;;;;;5095464;28;25114;-76
2022/04/06 12:52:25;;;;;;;6.32;3.10;;;11.00;87.90;;;;;;5096264;28;25133;-78
2022/04/06 12:54:59;;;;;;;7.32;2.70;;;11.00;87.10;;;;;;5077132;28;25060;-77
2022/04/06 12:57:27;;;;;;;10.25;3.25;;;11.00;86.90;;;;;;5093294;28;25072;-76
2022/04/06 12:59:58;;;;;;;6.47;3.47;;;11.00;85.60;;;;;;5094236;28;25057;-75